sensor_id;sensor_type;location;lat;lon;timestamp;P1;durP1;ratioP1;P2;durP2;ratioP2
5704;SDS011;2877;48.238;11.160;2023-08-17T00:01:25;5.77;;;5.17;;
5704;SDS011;2877;48.238;11.160;2023-08-17T00:03:50;6.13;;;5.37;;
5704;SDS011;2877;48.238;11.160;2023-08-17T00:06:16;11.57;;;5.80;;
5704;SDS011;2877;48.238;11.160;2023-08-17T00:08:42;6.67;;;6.03;;
5704;SDS011;2877;48.238;11.160;2023-08-17T00:11:08;8.37;;;6.10;;
5704;SDS011;2877;48.238;11.160;2023-08-17T00:13:33;10.00;;;6.80;;
5704;SDS011;2877;48.238;11.160;2023-08-17T00:15:59;8.83;;;6.40;;
5704;SDS011;2877;48.238;11.160;2023-08-17T00:18:25;9.80;;;5.70;;
5704;SDS011;2877;48.238;11.160;2023-08-17T00:20:50;10.57;;;6.67;;
5704;SDS011;2877;48.238;11.160;2023-08-17T00:23:16;9.20;;;6.63;;
5704;SDS011;2877;48.238;11.160;2023-08-17T00:25:42;11.43;;;6.07;;
5704;SDS011;2877;48.238;11.160;2023-08-17T00:28:07;7.40;;;6.10;;
5704;SDS011;2877;48.238;11.160;2023-08-17T00:30:33;7.13;;;6.40;;
5704;SDS011;2877;48.238;11.160;2023-08-17T00:33:01;22.70;;;6.07;;
5704;SDS011;2877;48.238;11.160;2023-08-17T00:35:27;9.27;;;6.67;;
5704;SDS011;2877;48.238;11.160;2023-08-17T00:37:53;6.70;;;6.00;;
5704;SDS011;2877;48.238;11.160;2023-08-17T00:40:19;7.07;;;6.37;;
5704;SDS011;2877;48.238;11.160;2023-08-17T00:42:44;8.07;;;6.67;;
5704;SDS011;2877;48.238;11.160;2023-08-17T00:45:10;6.93;;;6.33;;
5704;SDS011;2877;48.238;11.160;2023-08-17T00:47:35;9.30;;;6.50;;
5704;SDS011;2877;48.238;11.160;2023-08-17T00:50:01;8.17;;;6.80;;
5704;SDS011;2877;48.238;11.160;2023-08-17T00:52:28;8.53;;;7.23;;
5704;SDS011;2877;48.238;11.160;2023-08-17T00:54:55;8.97;;;7.10;;
5704;SDS011;2877;48.238;11.160;2023-08-17T00:57:21;11.40;;;7.93;;
5704;SDS011;2877;48.238;11.160;2023-08-17T00:59:48;8.47;;;7.63;;
5704;SDS011;2877;48.238;11.160;2023-08-17T01:02:14;9.37;;;7.50;;
5704;SDS011;2877;48.238;11.160;2023-08-17T01:04:41;17.10;;;9.30;;
5704;SDS011;2877;48.238;11.160;2023-08-17T01:07:07;9.37;;;7.70;;
5704;SDS011;2877;48.238;11.160;2023-08-17T01:09:32;10.20;;;8.60;;
5704;SDS011;2877;48.238;11.160;2023-08-17T01:12:17;9.37;;;7.30;;
5704;SDS011;2877;48.238;11.160;2023-08-17T01:15:07;8.60;;;7.53;;
5704;SDS011;2877;48.238;11.160;2023-08-17T01:17:44;8.40;;;7.23;;
5704;SDS011;2877;48.238;11.160;2023-08-17T01:20:19;10.70;;;8.10;;
5704;SDS011;2877;48.238;11.160;2023-08-17T01:22:46;13.13;;;8.07;;
5704;SDS011;2877;48.238;11.160;2023-08-17T01:25:15;8.97;;;7.93;;
5704;SDS011;2877;48.238;11.160;2023-08-17T01:27:41;11.80;;;8.70;;
5704;SDS011;2877;48.238;11.160;2023-08-17T01:30:13;17.10;;;8.57;;
5704;SDS011;2877;48.238;11.160;2023-08-17T01:38:02;10.40;;;8.60;;
5704;SDS011;2877;48.238;11.160;2023-08-17T01:40:32;10.20;;;8.30;;
5704;SDS011;2877;48.238;11.160;2023-08-17T01:42:59;8.30;;;7.50;;
5704;SDS011;2877;48.238;11.160;2023-08-17T01:45:26;9.37;;;8.03;;
5704;SDS011;2877;48.238;11.160;2023-08-17T01:47:52;9.60;;;8.30;;
5704;SDS011;2877;48.238;11.160;2023-08-17T01:50:17;10.43;;;7.60;;
5704;SDS011;2877;48.238;11.160;2023-08-17T01:52:43;9.77;;;7.70;;
5704;SDS011;2877;48.238;11.160;2023-08-17T01:55:08;8.80;;;7.33;;
5704;SDS011;2877;48.238;11.160;2023-08-17T01:57:34;8.17;;;7.37;;
5704;SDS011;2877;48.238;11.160;2023-08-17T02:00:01;9.10;;;7.27;;
5704;SDS011;2877;48.238;11.160;2023-08-17T02:02:29;10.10;;;7.50;;
5704;SDS011;2877;48.238;11.160;2023-08-17T02:04:55;10.03;;;8.63;;
5704;SDS011;2877;48.238;11.160;2023-08-17T02:07:20;9.17;;;7.70;;
5704;SDS011;2877;48.238;11.160;2023-08-17T02:09:46;9.20;;;7.80;;
5704;SDS011;2877;48.238;11.160;2023-08-17T02:12:11;10.07;;;7.90;;
5704;SDS011;2877;48.238;11.160;2023-08-17T02:14:37;8.40;;;7.60;;
5704;SDS011;2877;48.238;11.160;2023-08-17T02:17:02;10.20;;;9.20;;
5704;SDS011;2877;48.238;11.160;2023-08-17T02:19:30;9.97;;;8.40;;
5704;SDS011;2877;48.238;11.160;2023-08-17T02:21:56;11.50;;;10.40;;
5704;SDS011;2877;48.238;11.160;2023-08-17T02:24:22;9.63;;;8.67;;
5704;SDS011;2877;48.238;11.160;2023-08-17T02:26:47;10.50;;;8.87;;
5704;SDS011;2877;48.238;11.160;2023-08-17T02:29:13;9.77;;;8.70;;
5704;SDS011;2877;48.238;11.160;2023-08-17T02:31:38;10.40;;;8.90;;
5704;SDS011;2877;48.238;11.160;2023-08-17T02:34:04;14.67;;;9.90;;
5704;SDS011;2877;48.238;11.160;2023-08-17T02:36:30;9.63;;;8.63;;
5704;SDS011;2877;48.238;11.160;2023-08-17T02:38:56;10.47;;;9.37;;
5704;SDS011;2877;48.238;11.160;2023-08-17T02:41:22;11.87;;;9.57;;
5704;SDS011;2877;48.238;11.160;2023-08-17T02:43:47;10.70;;;9.60;;
5704;SDS011;2877;48.238;11.160;2023-08-17T02:46:13;12.73;;;10.20;;
5704;SDS011;2877;48.238;11.160;2023-08-17T02:48:39;10.70;;;9.60;;
5704;SDS011;2877;48.238;11.160;2023-08-17T02:51:04;13.30;;;9.40;;
5704;SDS011;2877;48.238;11.160;2023-08-17T02:53:30;11.73;;;9.00;;
5704;SDS011;2877;48.238;11.160;2023-08-17T02:55:55;10.27;;;9.17;;
5704;SDS011;2877;48.238;11.160;2023-08-17T02:58:21;14.53;;;8.50;;
5704;SDS011;2877;48.238;11.160;2023-08-17T03:00:46;10.93;;;9.80;;
5704;SDS011;2877;48.238;11.160;2023-08-17T03:03:12;9.77;;;8.87;;
5704;SDS011;2877;48.238;11.160;2023-08-17T03:05:37;11.77;;;9.43;;
5704;SDS011;2877;48.238;11.160;2023-08-17T03:08:03;8.73;;;7.77;;
5704;SDS011;2877;48.238;11.160;2023-08-17T03:10:29;12.63;;;7.93;;
5704;SDS011;2877;48.238;11.160;2023-08-17T03:12:55;10.30;;;8.93;;
5704;SDS011;2877;48.238;11.160;2023-08-17T03:15:21;12.70;;;8.90;;
5704;SDS011;2877;48.238;11.160;2023-08-17T03:17:46;8.93;;;8.00;;
5704;SDS011;2877;48.238;11.160;2023-08-17T03:20:12;14.57;;;8.40;;
5704;SDS011;2877;48.238;11.160;2023-08-17T03:22:37;11.87;;;8.90;;
5704;SDS011;2877;48.238;11.160;2023-08-17T03:25:03;14.53;;;10.23;;
5704;SDS011;2877;48.238;11.160;2023-08-17T03:27:29;11.07;;;9.20;;
5704;SDS011;2877;48.238;11.160;2023-08-17T03:29:55;9.70;;;8.70;;
5704;SDS011;2877;48.238;11.160;2023-08-17T03:32:21;12.63;;;9.40;;
5704;SDS011;2877;48.238;11.160;2023-08-17T03:34:46;11.60;;;10.40;;
5704;SDS011;2877;48.238;11.160;2023-08-17T03:37:12;11.60;;;10.07;;
5704;SDS011;2877;48.238;11.160;2023-08-17T03:39:38;11.90;;;10.20;;
5704;SDS011;2877;48.238;11.160;2023-08-17T03:42:03;12.17;;;10.10;;
5704;SDS011;2877;48.238;11.160;2023-08-17T03:44:29;10.47;;;9.40;;
5704;SDS011;2877;48.238;11.160;2023-08-17T03:46:54;11.60;;;9.50;;
5704;SDS011;2877;48.238;11.160;2023-08-17T03:49:20;14.70;;;9.77;;
5704;SDS011;2877;48.238;11.160;2023-08-17T03:51:45;11.23;;;8.90;;
5704;SDS011;2877;48.238;11.160;2023-08-17T03:54:12;12.97;;;9.20;;
5704;SDS011;2877;48.238;11.160;2023-08-17T03:56:37;10.90;;;9.80;;
5704;SDS011;2877;48.238;11.160;2023-08-17T03:59:03;14.43;;;10.10;;
5704;SDS011;2877;48.238;11.160;2023-08-17T04:01:29;16.53;;;10.20;;
5704;SDS011;2877;48.238;11.160;2023-08-17T04:03:55;10.60;;;9.40;;
5704;SDS011;2877;48.238;11.160;2023-08-17T04:06:20;12.00;;;9.27;;
5704;SDS011;2877;48.238;11.160;2023-08-17T04:08:46;11.83;;;10.20;;
5704;SDS011;2877;48.238;11.160;2023-08-17T04:11:11;13.83;;;12.40;;
5704;SDS011;2877;48.238;11.160;2023-08-17T04:13:37;14.30;;;11.23;;
5704;SDS011;2877;48.238;11.160;2023-08-17T04:16:02;11.60;;;10.40;;
5704;SDS011;2877;48.238;11.160;2023-08-17T04:18:28;13.40;;;10.50;;
5704;SDS011;2877;48.238;11.160;2023-08-17T04:20:54;11.80;;;10.53;;
5704;SDS011;2877;48.238;11.160;2023-08-17T04:23:19;12.50;;;10.67;;
5704;SDS011;2877;48.238;11.160;2023-08-17T04:25:46;14.80;;;10.70;;
5704;SDS011;2877;48.238;11.160;2023-08-17T04:28:13;11.70;;;9.83;;
5704;SDS011;2877;48.238;11.160;2023-08-17T04:30:38;10.83;;;9.73;;
5704;SDS011;2877;48.238;11.160;2023-08-17T04:33:04;10.30;;;9.30;;
5704;SDS011;2877;48.238;11.160;2023-08-17T04:35:30;10.63;;;9.60;;
5704;SDS011;2877;48.238;11.160;2023-08-17T04:37:55;11.73;;;9.93;;
5704;SDS011;2877;48.238;11.160;2023-08-17T04:40:21;10.63;;;9.53;;
5704;SDS011;2877;48.238;11.160;2023-08-17T04:42:47;13.63;;;9.10;;
5704;SDS011;2877;48.238;11.160;2023-08-17T04:45:13;11.00;;;8.80;;
5704;SDS011;2877;48.238;11.160;2023-08-17T04:47:39;11.53;;;9.57;;
5704;SDS011;2877;48.238;11.160;2023-08-17T04:50:05;11.70;;;9.80;;
5704;SDS011;2877;48.238;11.160;2023-08-17T04:52:31;12.37;;;9.67;;
5704;SDS011;2877;48.238;11.160;2023-08-17T04:54:57;11.90;;;8.33;;
5704;SDS011;2877;48.238;11.160;2023-08-17T04:57:22;14.60;;;9.57;;
5704;SDS011;2877;48.238;11.160;2023-08-17T04:59:49;12.07;;;10.53;;
5704;SDS011;2877;48.238;11.160;2023-08-17T05:02:15;10.50;;;9.43;;
5704;SDS011;2877;48.238;11.160;2023-08-17T05:04:40;11.97;;;9.97;;
5704;SDS011;2877;48.238;11.160;2023-08-17T05:07:06;10.83;;;9.63;;
5704;SDS011;2877;48.238;11.160;2023-08-17T05:09:33;17.80;;;11.57;;
5704;SDS011;2877;48.238;11.160;2023-08-17T05:11:58;14.87;;;10.07;;
5704;SDS011;2877;48.238;11.160;2023-08-17T05:14:24;13.90;;;11.33;;
5704;SDS011;2877;48.238;11.160;2023-08-17T05:16:49;16.33;;;12.37;;
5704;SDS011;2877;48.238;11.160;2023-08-17T05:19:15;13.60;;;12.20;;
5704;SDS011;2877;48.238;11.160;2023-08-17T05:21:40;16.33;;;12.43;;
5704;SDS011;2877;48.238;11.160;2023-08-17T05:24:06;13.20;;;11.63;;
5704;SDS011;2877;48.238;11.160;2023-08-17T05:26:32;14.87;;;11.97;;
5704;SDS011;2877;48.238;11.160;2023-08-17T05:28:57;13.40;;;11.03;;
5704;SDS011;2877;48.238;11.160;2023-08-17T05:31:23;13.40;;;10.87;;
5704;SDS011;2877;48.238;11.160;2023-08-17T05:33:48;11.97;;;10.77;;
5704;SDS011;2877;48.238;11.160;2023-08-17T05:36:14;12.17;;;10.87;;
5704;SDS011;2877;48.238;11.160;2023-08-17T05:38:39;12.40;;;9.90;;
5704;SDS011;2877;48.238;11.160;2023-08-17T05:41:05;12.30;;;10.37;;
5704;SDS011;2877;48.238;11.160;2023-08-17T05:43:30;16.47;;;10.50;;
5704;SDS011;2877;48.238;11.160;2023-08-17T05:45:57;13.60;;;11.00;;
5704;SDS011;2877;48.238;11.160;2023-08-17T05:48:24;12.17;;;10.57;;
5704;SDS011;2877;48.238;11.160;2023-08-17T05:50:49;13.10;;;11.80;;
5704;SDS011;2877;48.238;11.160;2023-08-17T05:53:15;15.93;;;11.13;;
5704;SDS011;2877;48.238;11.160;2023-08-17T05:55:40;14.40;;;11.90;;
5704;SDS011;2877;48.238;11.160;2023-08-17T05:58:06;13.13;;;11.73;;
5704;SDS011;2877;48.238;11.160;2023-08-17T06:00:32;12.33;;;10.77;;
5704;SDS011;2877;48.238;11.160;2023-08-17T06:02:57;10.57;;;9.37;;
5704;SDS011;2877;48.238;11.160;2023-08-17T06:05:29;12.00;;;8.77;;
5704;SDS011;2877;48.238;11.160;2023-08-17T06:07:58;12.20;;;9.20;;
5704;SDS011;2877;48.238;11.160;2023-08-17T06:10:24;37.97;;;9.17;;
5704;SDS011;2877;48.238;11.160;2023-08-17T06:12:53;10.40;;;9.30;;
5704;SDS011;2877;48.238;11.160;2023-08-17T06:15:20;9.30;;;8.40;;
5704;SDS011;2877;48.238;11.160;2023-08-17T06:17:45;10.57;;;9.47;;
5704;SDS011;2877;48.238;11.160;2023-08-17T06:20:11;10.60;;;8.17;;
5704;SDS011;2877;48.238;11.160;2023-08-17T06:22:37;10.40;;;9.30;;
5704;SDS011;2877;48.238;11.160;2023-08-17T06:25:03;15.03;;;9.33;;
5704;SDS011;2877;48.238;11.160;2023-08-17T06:27:30;10.00;;;8.67;;
5704;SDS011;2877;48.238;11.160;2023-08-17T06:29:56;9.40;;;8.40;;
5704;SDS011;2877;48.238;11.160;2023-08-17T06:32:22;9.57;;;8.40;;
5704;SDS011;2877;48.238;11.160;2023-08-17T06:34:47;11.40;;;9.97;;
5704;SDS011;2877;48.238;11.160;2023-08-17T06:37:13;15.60;;;9.70;;
5704;SDS011;2877;48.238;11.160;2023-08-17T06:39:38;10.80;;;9.47;;
5704;SDS011;2877;48.238;11.160;2023-08-17T06:42:04;12.43;;;10.73;;
5704;SDS011;2877;48.238;11.160;2023-08-17T06:44:30;14.33;;;10.80;;
5704;SDS011;2877;48.238;11.160;2023-08-17T06:46:56;13.10;;;10.40;;
5704;SDS011;2877;48.238;11.160;2023-08-17T06:49:21;11.57;;;10.37;;
5704;SDS011;2877;48.238;11.160;2023-08-17T06:51:47;13.20;;;9.57;;
5704;SDS011;2877;48.238;11.160;2023-08-17T06:54:13;13.50;;;9.30;;
5704;SDS011;2877;48.238;11.160;2023-08-17T06:56:38;15.70;;;9.70;;
5704;SDS011;2877;48.238;11.160;2023-08-17T06:59:04;11.67;;;10.47;;
5704;SDS011;2877;48.238;11.160;2023-08-17T07:01:30;12.50;;;9.83;;
5704;SDS011;2877;48.238;11.160;2023-08-17T07:03:55;14.70;;;9.60;;
5704;SDS011;2877;48.238;11.160;2023-08-17T07:06:22;10.83;;;9.80;;
5704;SDS011;2877;48.238;11.160;2023-08-17T07:08:48;13.20;;;9.33;;
5704;SDS011;2877;48.238;11.160;2023-08-17T07:11:13;12.90;;;10.57;;
5704;SDS011;2877;48.238;11.160;2023-08-17T07:13:39;10.87;;;9.60;;
5704;SDS011;2877;48.238;11.160;2023-08-17T07:16:04;10.40;;;9.40;;
5704;SDS011;2877;48.238;11.160;2023-08-17T07:18:30;9.50;;;8.57;;
5704;SDS011;2877;48.238;11.160;2023-08-17T07:20:55;9.50;;;8.50;;
5704;SDS011;2877;48.238;11.160;2023-08-17T07:23:21;9.93;;;8.93;;
5704;SDS011;2877;48.238;11.160;2023-08-17T07:25:47;11.23;;;8.90;;
5704;SDS011;2877;48.238;11.160;2023-08-17T07:28:13;11.10;;;8.90;;
5704;SDS011;2877;48.238;11.160;2023-08-17T07:30:40;13.43;;;9.03;;
5704;SDS011;2877;48.238;11.160;2023-08-17T07:33:06;12.30;;;8.43;;
5704;SDS011;2877;48.238;11.160;2023-08-17T07:35:31;10.37;;;9.23;;
5704;SDS011;2877;48.238;11.160;2023-08-17T07:37:57;10.13;;;9.03;;
5704;SDS011;2877;48.238;11.160;2023-08-17T07:40:22;9.80;;;7.97;;
5704;SDS011;2877;48.238;11.160;2023-08-17T07:42:48;8.63;;;7.70;;
5704;SDS011;2877;48.238;11.160;2023-08-17T07:45:14;12.60;;;7.90;;
5704;SDS011;2877;48.238;11.160;2023-08-17T07:47:39;8.60;;;7.80;;
5704;SDS011;2877;48.238;11.160;2023-08-17T07:50:06;9.83;;;7.33;;
5704;SDS011;2877;48.238;11.160;2023-08-17T07:52:32;10.97;;;7.67;;
5704;SDS011;2877;48.238;11.160;2023-08-17T07:54:58;10.10;;;8.50;;
5704;SDS011;2877;48.238;11.160;2023-08-17T07:57:23;10.27;;;7.80;;
5704;SDS011;2877;48.238;11.160;2023-08-17T07:59:49;13.60;;;7.83;;
5704;SDS011;2877;48.238;11.160;2023-08-17T08:02:16;8.40;;;7.47;;
5704;SDS011;2877;48.238;11.160;2023-08-17T08:04:42;10.20;;;8.40;;
5704;SDS011;2877;48.238;11.160;2023-08-17T08:07:08;13.27;;;8.07;;
5704;SDS011;2877;48.238;11.160;2023-08-17T08:09:34;9.40;;;7.13;;
5704;SDS011;2877;48.238;11.160;2023-08-17T08:12:00;7.83;;;6.83;;
5704;SDS011;2877;48.238;11.160;2023-08-17T08:14:25;7.53;;;6.77;;
5704;SDS011;2877;48.238;11.160;2023-08-17T08:16:51;10.10;;;7.43;;
5704;SDS011;2877;48.238;11.160;2023-08-17T08:19:17;11.97;;;7.47;;
5704;SDS011;2877;48.238;11.160;2023-08-17T08:21:42;8.20;;;6.80;;
5704;SDS011;2877;48.238;11.160;2023-08-17T08:24:08;10.83;;;7.10;;
5704;SDS011;2877;48.238;11.160;2023-08-17T08:26:33;8.60;;;7.70;;
5704;SDS011;2877;48.238;11.160;2023-08-17T08:28:59;8.53;;;7.73;;
5704;SDS011;2877;48.238;11.160;2023-08-17T08:31:25;8.20;;;7.40;;
5704;SDS011;2877;48.238;11.160;2023-08-17T08:33:50;8.47;;;7.67;;
5704;SDS011;2877;48.238;11.160;2023-08-17T08:36:17;11.33;;;7.30;;
5704;SDS011;2877;48.238;11.160;2023-08-17T08:38:43;8.00;;;7.20;;
5704;SDS011;2877;48.238;11.160;2023-08-17T08:41:09;7.90;;;7.20;;
5704;SDS011;2877;48.238;11.160;2023-08-17T08:43:36;9.40;;;7.60;;
5704;SDS011;2877;48.238;11.160;2023-08-17T08:46:01;19.90;;;8.37;;
5704;SDS011;2877;48.238;11.160;2023-08-17T08:48:27;9.83;;;8.13;;
5704;SDS011;2877;48.238;11.160;2023-08-17T08:50:55;8.60;;;7.70;;
5704;SDS011;2877;48.238;11.160;2023-08-17T08:53:28;8.57;;;6.73;;
5704;SDS011;2877;48.238;11.160;2023-08-17T08:55:58;10.67;;;6.90;;
5704;SDS011;2877;48.238;11.160;2023-08-17T08:58:25;8.73;;;7.63;;
5704;SDS011;2877;48.238;11.160;2023-08-17T09:00:52;8.97;;;7.20;;
5704;SDS011;2877;48.238;11.160;2023-08-17T09:03:18;11.63;;;7.40;;
5704;SDS011;2877;48.238;11.160;2023-08-17T09:05:48;17.77;;;8.30;;
5704;SDS011;2877;48.238;11.160;2023-08-17T09:08:15;11.97;;;7.60;;
5704;SDS011;2877;48.238;11.160;2023-08-17T09:10:45;8.17;;;6.80;;
5704;SDS011;2877;48.238;11.160;2023-08-17T09:13:12;10.17;;;7.30;;
5704;SDS011;2877;48.238;11.160;2023-08-17T09:15:37;8.57;;;6.97;;
5704;SDS011;2877;48.238;11.160;2023-08-17T09:18:04;8.20;;;6.37;;
5704;SDS011;2877;48.238;11.160;2023-08-17T09:20:42;10.03;;;6.87;;
5704;SDS011;2877;48.238;11.160;2023-08-17T09:23:13;7.33;;;6.63;;
5704;SDS011;2877;48.238;11.160;2023-08-17T09:25:44;12.50;;;7.20;;
5704;SDS011;2877;48.238;11.160;2023-08-17T09:28:12;7.50;;;6.80;;
5704;SDS011;2877;48.238;11.160;2023-08-17T09:30:56;8.43;;;7.10;;
5704;SDS011;2877;48.238;11.160;2023-08-17T09:33:23;11.73;;;7.00;;
5704;SDS011;2877;48.238;11.160;2023-08-17T09:35:50;10.30;;;6.60;;
5704;SDS011;2877;48.238;11.160;2023-08-17T09:38:17;7.73;;;6.50;;
5704;SDS011;2877;48.238;11.160;2023-08-17T09:40:43;8.30;;;6.43;;
5704;SDS011;2877;48.238;11.160;2023-08-17T09:43:10;7.00;;;6.40;;
5704;SDS011;2877;48.238;11.160;2023-08-17T09:45:36;7.50;;;6.73;;
5704;SDS011;2877;48.238;11.160;2023-08-17T09:48:03;10.30;;;6.50;;
5704;SDS011;2877;48.238;11.160;2023-08-17T09:50:29;10.40;;;6.50;;
5704;SDS011;2877;48.238;11.160;2023-08-17T09:52:55;7.40;;;6.27;;
5704;SDS011;2877;48.238;11.160;2023-08-17T09:55:23;6.63;;;6.03;;
5704;SDS011;2877;48.238;11.160;2023-08-17T09:57:50;6.67;;;6.07;;
5704;SDS011;2877;48.238;11.160;2023-08-17T10:00:16;7.07;;;6.37;;
5704;SDS011;2877;48.238;11.160;2023-08-17T10:02:43;8.43;;;6.23;;
5704;SDS011;2877;48.238;11.160;2023-08-17T10:05:10;6.50;;;5.93;;
5704;SDS011;2877;48.238;11.160;2023-08-17T10:07:38;6.73;;;6.13;;
5704;SDS011;2877;48.238;11.160;2023-08-17T10:10:07;7.90;;;6.40;;
5704;SDS011;2877;48.238;11.160;2023-08-17T10:12:36;6.30;;;5.70;;
5704;SDS011;2877;48.238;11.160;2023-08-17T10:15:07;8.10;;;6.10;;
5704;SDS011;2877;48.238;11.160;2023-08-17T10:17:37;9.17;;;5.93;;
5704;SDS011;2877;48.238;11.160;2023-08-17T10:20:09;6.37;;;5.87;;
5704;SDS011;2877;48.238;11.160;2023-08-17T10:25:16;5.73;;;5.23;;
5704;SDS011;2877;48.238;11.160;2023-08-17T10:27:43;6.50;;;5.90;;
5704;SDS011;2877;48.238;11.160;2023-08-17T10:30:10;6.03;;;5.50;;
5704;SDS011;2877;48.238;11.160;2023-08-17T10:32:36;5.83;;;5.33;;
5704;SDS011;2877;48.238;11.160;2023-08-17T10:35:04;6.07;;;5.57;;
5704;SDS011;2877;48.238;11.160;2023-08-17T10:37:30;5.53;;;4.97;;
5704;SDS011;2877;48.238;11.160;2023-08-17T10:39:57;6.17;;;5.57;;
5704;SDS011;2877;48.238;11.160;2023-08-17T10:44:59;6.83;;;5.60;;
5704;SDS011;2877;48.238;11.160;2023-08-17T10:47:28;5.90;;;5.30;;
5704;SDS011;2877;48.238;11.160;2023-08-17T10:49:58;6.87;;;5.50;;
5704;SDS011;2877;48.238;11.160;2023-08-17T10:52:34;7.73;;;5.13;;
5704;SDS011;2877;48.238;11.160;2023-08-17T10:55:03;7.07;;;5.10;;
5704;SDS011;2877;48.238;11.160;2023-08-17T10:57:35;8.10;;;4.70;;
5704;SDS011;2877;48.238;11.160;2023-08-17T11:00:13;8.33;;;5.63;;
5704;SDS011;2877;48.238;11.160;2023-08-17T11:02:40;5.00;;;4.53;;
5704;SDS011;2877;48.238;11.160;2023-08-17T11:05:09;5.10;;;4.70;;
5704;SDS011;2877;48.238;11.160;2023-08-17T11:07:39;6.40;;;5.13;;
5704;SDS011;2877;48.238;11.160;2023-08-17T11:12:43;7.00;;;5.17;;
5704;SDS011;2877;48.238;11.160;2023-08-17T11:15:09;5.10;;;4.70;;
5704;SDS011;2877;48.238;11.160;2023-08-17T11:17:35;7.30;;;5.47;;
5704;SDS011;2877;48.238;11.160;2023-08-17T11:20:01;5.70;;;5.20;;
5704;SDS011;2877;48.238;11.160;2023-08-17T11:22:27;6.33;;;5.73;;
5704;SDS011;2877;48.238;11.160;2023-08-17T11:24:53;6.17;;;5.43;;
5704;SDS011;2877;48.238;11.160;2023-08-17T11:27:18;11.03;;;5.10;;
5704;SDS011;2877;48.238;11.160;2023-08-17T11:29:45;7.23;;;4.83;;
5704;SDS011;2877;48.238;11.160;2023-08-17T11:32:11;6.30;;;4.90;;
5704;SDS011;2877;48.238;11.160;2023-08-17T11:34:37;5.43;;;4.70;;
5704;SDS011;2877;48.238;11.160;2023-08-17T11:37:04;4.80;;;4.07;;
5704;SDS011;2877;48.238;11.160;2023-08-17T11:39:33;5.40;;;4.90;;
5704;SDS011;2877;48.238;11.160;2023-08-17T11:41:59;5.10;;;4.40;;
5704;SDS011;2877;48.238;11.160;2023-08-17T11:44:25;13.80;;;4.73;;
5704;SDS011;2877;48.238;11.160;2023-08-17T11:46:51;9.17;;;4.30;;
5704;SDS011;2877;48.238;11.160;2023-08-17T11:49:17;5.80;;;4.50;;
5704;SDS011;2877;48.238;11.160;2023-08-17T11:51:42;4.60;;;4.30;;
5704;SDS011;2877;48.238;11.160;2023-08-17T11:54:08;5.90;;;4.53;;
5704;SDS011;2877;48.238;11.160;2023-08-17T11:56:34;6.10;;;5.50;;
5704;SDS011;2877;48.238;11.160;2023-08-17T11:59:07;5.57;;;5.07;;
5704;SDS011;2877;48.238;11.160;2023-08-17T12:01:45;6.03;;;5.40;;
5704;SDS011;2877;48.238;11.160;2023-08-17T12:04:10;5.27;;;4.50;;
5704;SDS011;2877;48.238;11.160;2023-08-17T12:06:37;5.53;;;4.60;;
5704;SDS011;2877;48.238;11.160;2023-08-17T12:09:08;5.00;;;4.60;;
5704;SDS011;2877;48.238;11.160;2023-08-17T12:11:34;5.97;;;4.80;;
5704;SDS011;2877;48.238;11.160;2023-08-17T12:14:00;4.97;;;4.57;;
5704;SDS011;2877;48.238;11.160;2023-08-17T12:16:44;5.60;;;5.03;;
5704;SDS011;2877;48.238;11.160;2023-08-17T12:19:13;7.80;;;4.53;;
5704;SDS011;2877;48.238;11.160;2023-08-17T12:21:40;4.80;;;4.37;;
5704;SDS011;2877;48.238;11.160;2023-08-17T12:24:08;6.40;;;4.00;;
5704;SDS011;2877;48.238;11.160;2023-08-17T12:26:34;4.20;;;3.77;;
5704;SDS011;2877;48.238;11.160;2023-08-17T12:29:00;4.30;;;3.90;;
5704;SDS011;2877;48.238;11.160;2023-08-17T12:31:29;4.30;;;4.00;;
5704;SDS011;2877;48.238;11.160;2023-08-17T12:33:55;3.90;;;3.70;;
5704;SDS011;2877;48.238;11.160;2023-08-17T12:36:20;4.47;;;4.03;;
5704;SDS011;2877;48.238;11.160;2023-08-17T12:38:46;3.90;;;3.40;;
5704;SDS011;2877;48.238;11.160;2023-08-17T12:41:13;3.40;;;3.20;;
5704;SDS011;2877;48.238;11.160;2023-08-17T12:43:38;3.60;;;3.33;;
5704;SDS011;2877;48.238;11.160;2023-08-17T12:46:04;3.20;;;3.00;;
5704;SDS011;2877;48.238;11.160;2023-08-17T12:48:30;3.30;;;2.97;;
5704;SDS011;2877;48.238;11.160;2023-08-17T12:50:55;5.00;;;3.00;;
5704;SDS011;2877;48.238;11.160;2023-08-17T12:53:21;3.43;;;3.13;;
5704;SDS011;2877;48.238;11.160;2023-08-17T12:55:47;3.88;;;3.53;;
5704;SDS011;2877;48.238;11.160;2023-08-17T12:58:13;4.70;;;3.38;;
5704;SDS011;2877;48.238;11.160;2023-08-17T13:00:38;3.80;;;3.50;;
5704;SDS011;2877;48.238;11.160;2023-08-17T13:03:04;3.17;;;2.97;;
5704;SDS011;2877;48.238;11.160;2023-08-17T13:05:29;3.95;;;2.92;;
5704;SDS011;2877;48.238;11.160;2023-08-17T13:07:55;3.10;;;2.72;;
5704;SDS011;2877;48.238;11.160;2023-08-17T13:10:20;2.17;;;2.08;;
5704;SDS011;2877;48.238;11.160;2023-08-17T13:12:46;2.47;;;2.38;;
5704;SDS011;2877;48.238;11.160;2023-08-17T13:15:12;2.63;;;2.53;;
5704;SDS011;2877;48.238;11.160;2023-08-17T13:17:38;3.47;;;3.28;;
5704;SDS011;2877;48.238;11.160;2023-08-17T13:20:04;5.35;;;3.10;;
5704;SDS011;2877;48.238;11.160;2023-08-17T13:22:31;3.90;;;3.60;;
5704;SDS011;2877;48.238;11.160;2023-08-17T13:24:57;3.23;;;3.03;;
5704;SDS011;2877;48.238;11.160;2023-08-17T13:27:23;5.27;;;3.17;;
5704;SDS011;2877;48.238;11.160;2023-08-17T13:29:48;3.23;;;2.93;;
5704;SDS011;2877;48.238;11.160;2023-08-17T13:32:14;3.40;;;3.10;;
5704;SDS011;2877;48.238;11.160;2023-08-17T13:34:39;3.40;;;3.10;;
5704;SDS011;2877;48.238;11.160;2023-08-17T13:37:05;3.83;;;3.50;;
5704;SDS011;2877;48.238;11.160;2023-08-17T13:39:30;5.30;;;3.50;;
5704;SDS011;2877;48.238;11.160;2023-08-17T13:41:57;3.90;;;3.60;;
5704;SDS011;2877;48.238;11.160;2023-08-17T13:44:23;4.30;;;3.70;;
5704;SDS011;2877;48.238;11.160;2023-08-17T13:46:48;3.67;;;3.37;;
5704;SDS011;2877;48.238;11.160;2023-08-17T13:49:14;3.40;;;3.10;;
5704;SDS011;2877;48.238;11.160;2023-08-17T13:51:39;3.80;;;3.50;;
5704;SDS011;2877;48.238;11.160;2023-08-17T13:54:05;3.77;;;3.47;;
5704;SDS011;2877;48.238;11.160;2023-08-17T13:56:30;4.57;;;3.60;;
5704;SDS011;2877;48.238;11.160;2023-08-17T13:58:56;3.80;;;3.50;;
5704;SDS011;2877;48.238;11.160;2023-08-17T14:01:21;4.70;;;3.43;;
5704;SDS011;2877;48.238;11.160;2023-08-17T14:03:47;5.70;;;3.53;;
5704;SDS011;2877;48.238;11.160;2023-08-17T14:06:12;3.60;;;3.30;;
5704;SDS011;2877;48.238;11.160;2023-08-17T14:08:38;7.60;;;3.60;;
5704;SDS011;2877;48.238;11.160;2023-08-17T14:11:04;6.10;;;3.23;;
5704;SDS011;2877;48.238;11.160;2023-08-17T14:13:31;4.20;;;3.50;;
5704;SDS011;2877;48.238;11.160;2023-08-17T14:15:57;3.63;;;3.33;;
5704;SDS011;2877;48.238;11.160;2023-08-17T14:18:24;3.37;;;3.07;;
5704;SDS011;2877;48.238;11.160;2023-08-17T14:20:51;3.93;;;3.40;;
5704;SDS011;2877;48.238;11.160;2023-08-17T14:23:17;3.63;;;3.33;;
5704;SDS011;2877;48.238;11.160;2023-08-17T14:25:42;3.07;;;2.87;;
5704;SDS011;2877;48.238;11.160;2023-08-17T14:28:08;4.03;;;2.83;;
5704;SDS011;2877;48.238;11.160;2023-08-17T14:30:33;5.90;;;3.50;;
5704;SDS011;2877;48.238;11.160;2023-08-17T14:32:59;3.20;;;2.90;;
5704;SDS011;2877;48.238;11.160;2023-08-17T14:35:26;3.30;;;3.00;;
5704;SDS011;2877;48.238;11.160;2023-08-17T14:37:51;5.07;;;3.00;;
5704;SDS011;2877;48.238;11.160;2023-08-17T14:40:17;3.03;;;2.73;;
5704;SDS011;2877;48.238;11.160;2023-08-17T14:42:43;4.60;;;2.80;;
5704;SDS011;2877;48.238;11.160;2023-08-17T14:45:09;3.33;;;3.13;;
5704;SDS011;2877;48.238;11.160;2023-08-17T14:47:36;4.60;;;2.83;;
5704;SDS011;2877;48.238;11.160;2023-08-17T14:50:01;4.27;;;3.03;;
5704;SDS011;2877;48.238;11.160;2023-08-17T14:52:27;3.27;;;2.93;;
5704;SDS011;2877;48.238;11.160;2023-08-17T14:54:52;7.90;;;3.30;;
5704;SDS011;2877;48.238;11.160;2023-08-17T14:57:18;5.57;;;3.00;;
5704;SDS011;2877;48.238;11.160;2023-08-17T14:59:43;4.73;;;3.43;;
5704;SDS011;2877;48.238;11.160;2023-08-17T15:02:09;3.50;;;3.20;;